Time;durP1;ratioP1;P1;durP2;ratioP2;P2;SDS_P1;SDS_P2;PMS_P1;PMS_P2;Temp;Humidity;BMP_temperature;BMP_pressure;BME280_temperature;BME280_humidity;BME280_pressure;Samples;Min_cycle;Max_cycle;Signal;HPM_P1;HPM_P2
2022/11/26 00:01:18;;;;;;;16.47;3.17;;;7.70;99.90;;;;;;4992178;28;20213;-80
2022/11/26 00:03:45;;;;;;;12.17;3.10;;;7.80;99.90;;;;;;5008773;28;20189;-79
2022/11/26 00:06:48;;;;;;;5.63;2.20;;;7.80;99.90;;;;;;5009628;28;20421;-79
2022/11/26 00:09:18;;;;;;;10.33;2.63;;;7.70;99.90;;;;;;5000513;28;20925;-79
2022/11/26 00:11:43;;;;;;;10.80;2.30;;;7.70;99.90;;;;;;5009264;28;20798;-79
2022/11/26 00:14:14;;;;;;;7.77;2.80;;;7.70;99.90;;;;;;4995579;28;20424;-79
2022/11/26 00:16:40;;;;;;;9.93;2.60;;;7.70;99.90;;;;;;5015868;28;20179;-80
2022/11/26 00:19:05;;;;;;;5.17;2.50;;;7.80;99.90;;;;;;4997641;28;20448;-81
2022/11/26 00:21:33;;;;;;;12.87;2.60;;;7.80;99.90;;;;;;4981584;28;21016;-81
2022/11/26 00:24:01;;;;;;;8.00;2.10;;;7.70;99.90;;;;;;5014108;28;20192;-80
2022/11/26 00:26:27;;;;;;;7.50;2.47;;;7.70;99.90;;;;;;4998113;28;20912;-80
2022/11/26 00:28:55;;;;;;;8.17;2.23;;;7.70;99.90;;;;;;5014097;28;20428;-80
2022/11/26 00:31:21;;;;;;;12.40;2.80;;;7.70;99.90;;;;;;5015346;28;20459;-80
2022/11/26 00:33:46;;;;;;;7.90;2.13;;;7.70;99.90;;;;;;4998230;28;20428;-80
2022/11/26 00:36:26;;;;;;;5.20;1.90;;;7.70;99.90;;;;;;4997968;28;20212;-80
2022/11/26 00:39:14;;;;;;;16.23;3.17;;;7.70;99.90;;;;;;5014717;28;20184;-80
2022/11/26 00:41:40;;;;;;;15.60;2.30;;;7.80;99.90;;;;;;5014561;28;20458;-81
2022/11/26 00:44:19;;;;;;;10.80;2.93;;;7.90;99.90;;;;;;4998367;28;20433;-80
2022/11/26 00:46:45;;;;;;;10.23;2.53;;;7.80;99.90;;;;;;5014966;28;20191;-80
2022/11/26 00:49:11;;;;;;;9.80;2.43;;;7.70;99.90;;;;;;5014648;28;20428;-80
2022/11/26 00:51:37;;;;;;;4.30;2.20;;;7.70;99.90;;;;;;4998110;28;20476;-80
2022/11/26 00:54:03;;;;;;;11.87;2.43;;;7.70;99.90;;;;;;5015817;28;20650;-81
2022/11/26 00:56:30;;;;;;;11.57;3.10;;;7.70;99.90;;;;;;5015487;28;20423;-79
2022/11/26 00:58:55;;;;;;;11.53;2.50;;;7.80;99.90;;;;;;4997663;28;20550;-80
2022/11/26 01:01:24;;;;;;;5.07;2.40;;;7.70;99.90;;;;;;5014059;28;20919;-80
2022/11/26 01:03:51;;;;;;;5.33;2.00;;;7.70;99.90;;;;;;5013810;28;20194;-80
2022/11/26 01:06:26;;;;;;;9.30;2.27;;;7.70;99.90;;;;;;5015454;28;20423;-79
2022/11/26 01:08:52;;;;;;;7.87;2.37;;;7.70;99.90;;;;;;4999536;28;20423;-79
2022/11/26 01:11:20;;;;;;;12.20;1.97;;;7.70;99.90;;;;;;5018692;28;20476;-79
2022/11/26 01:13:48;;;;;;;10.50;2.30;;;7.70;99.90;;;;;;5018762;28;20186;-79
2022/11/26 01:16:24;;;;;;;7.90;2.20;;;7.70;99.90;;;;;;5017217;28;20519;-79
2022/11/26 01:18:52;;;;;;;11.53;2.40;;;7.80;99.90;;;;;;5018440;28;20428;-81
2022/11/26 01:21:18;;;;;;;7.47;2.03;;;7.70;99.90;;;;;;4983085;28;20455;-81
2022/11/26 01:23:44;;;;;;;4.27;1.67;;;7.80;99.90;;;;;;4999119;28;20511;-80
2022/11/26 01:26:15;;;;;;;7.70;2.00;;;7.70;99.90;;;;;;5011227;28;20426;-80
2022/11/26 01:28:40;;;;;;;7.90;2.30;;;7.60;99.90;;;;;;5013763;28;20509;-80
2022/11/26 01:31:15;;;;;;;8.00;2.10;;;7.60;99.90;;;;;;5012380;28;20557;-79
2022/11/26 01:33:41;;;;;;;22.50;3.37;;;7.60;99.90;;;;;;5010782;28;20276;-80
2022/11/26 01:36:22;;;;;;;7.77;2.17;;;7.60;99.90;;;;;;5012530;28;20414;-80
2022/11/26 01:38:48;;;;;;;13.40;2.27;;;7.50;99.90;;;;;;5010745;28;20426;-79
2022/11/26 01:41:44;;;;;;;7.67;2.37;;;7.70;99.90;;;;;;5012051;28;20452;-79
2022/11/26 01:44:21;;;;;;;11.03;2.43;;;7.60;99.90;;;;;;4998906;28;20565;-79
2022/11/26 01:46:48;;;;;;;13.93;2.40;;;7.60;99.90;;;;;;5012183;28;20419;-79
2022/11/26 01:49:26;;;;;;;6.60;2.03;;;7.60;99.90;;;;;;5010638;28;20436;-79
2022/11/26 01:52:11;;;;;;;13.67;2.70;;;7.60;99.90;;;;;;5011972;28;20451;-79
2022/11/26 01:54:41;;;;;;;11.50;2.30;;;7.50;99.90;;;;;;5011315;28;20470;-79
2022/11/26 01:57:19;;;;;;;10.83;2.23;;;7.50;99.90;;;;;;4993220;28;20597;-80
2022/11/26 01:59:53;;;;;;;7.87;1.83;;;7.40;99.90;;;;;;5009911;28;20802;-80
2022/11/26 02:02:23;;;;;;;10.60;2.00;;;7.40;99.90;;;;;;5009779;28;20423;-81
2022/11/26 02:05:09;;;;;;;12.03;2.97;;;7.50;99.90;;;;;;5009770;28;20933;-80
2022/11/26 02:07:36;;;;;;;10.30;2.40;;;7.30;99.90;;;;;;5011045;28;20487;-78
2022/11/26 02:10:02;;;;;;;18.30;2.87;;;7.30;99.90;;;;;;5011184;28;20467;-78
2022/11/26 02:12:28;;;;;;;6.47;2.50;;;7.30;99.90;;;;;;5009049;28;20937;-78
2022/11/26 02:14:54;;;;;;;5.57;2.50;;;7.20;99.90;;;;;;5009910;28;20940;-78
2022/11/26 02:17:35;;;;;;;13.50;2.70;;;7.20;99.90;;;;;;5010481;28;20953;-78
2022/11/26 02:20:25;;;;;;;10.97;3.03;;;7.20;99.90;;;;;;5009404;28;20424;-78
2022/11/26 02:23:28;;;;;;;11.10;2.67;;;7.20;99.90;;;;;;5011127;28;20424;-80
2022/11/26 02:26:21;;;;;;;6.93;2.50;;;7.10;99.90;;;;;;5009127;28;20515;-79
2022/11/26 02:29:00;;;;;;;9.03;2.63;;;7.10;99.90;;;;;;5010707;28;20483;-79
2022/11/26 02:31:40;;;;;;;6.53;2.43;;;7.00;99.90;;;;;;5011197;28;20491;-80
2022/11/26 02:34:25;;;;;;;6.93;2.83;;;7.00;99.90;;;;;;5010931;28;20466;-79
2022/11/26 02:37:20;;;;;;;10.57;2.80;;;6.90;99.90;;;;;;5011672;28;20787;-80
2022/11/26 02:39:46;;;;;;;8.83;2.57;;;6.90;99.90;;;;;;5009030;28;20436;-79
2022/11/26 02:42:25;;;;;;;8.50;3.20;;;7.00;99.90;;;;;;5014132;28;20450;-80
2022/11/26 02:44:54;;;;;;;12.13;2.43;;;6.90;99.90;;;;;;5011030;28;20216;-81
2022/11/26 02:47:21;;;;;;;7.83;2.50;;;6.90;99.90;;;;;;4993283;28;20432;-80
2022/11/26 02:49:50;;;;;;;7.17;2.10;;;7.00;99.90;;;;;;5011151;28;20460;-80
2022/11/26 02:52:18;;;;;;;8.43;2.67;;;6.90;99.90;;;;;;5010479;28;20416;-80
2022/11/26 02:54:45;;;;;;;8.30;3.00;;;7.00;99.90;;;;;;5009467;28;20854;-80
2022/11/26 02:57:14;;;;;;;5.60;2.80;;;6.90;99.90;;;;;;5010386;28;20809;-80
2022/11/26 02:59:41;;;;;;;6.50;2.50;;;6.90;99.90;;;;;;5010878;28;20490;-79
2022/11/26 03:02:19;;;;;;;5.97;2.20;;;7.00;99.90;;;;;;4992337;28;20668;-80
2022/11/26 03:04:47;;;;;;;47.67;36.00;;;6.90;99.90;;;;;;5008874;28;20423;-79
2022/11/26 03:07:14;;;;;;;14.00;5.60;;;7.00;99.90;;;;;;5010226;28;20555;-80
2022/11/26 03:09:50;;;;;;;10.47;2.87;;;7.00;99.90;;;;;;5009869;28;20491;-78
2022/11/26 03:12:16;;;;;;;7.57;2.50;;;7.00;99.90;;;;;;5008685;28;20423;-78
2022/11/26 03:14:42;;;;;;;6.20;2.03;;;6.90;99.90;;;;;;5008411;28;20416;-79
2022/11/26 03:17:07;;;;;;;8.70;2.80;;;6.90;99.90;;;;;;5008521;28;20288;-79
2022/11/26 03:19:33;;;;;;;9.37;2.83;;;6.90;99.90;;;;;;4991969;28;20195;-81
2022/11/26 03:22:00;;;;;;;5.27;2.30;;;6.90;99.90;;;;;;5008435;28;20225;-81
2022/11/26 03:24:25;;;;;;;11.60;2.63;;;6.80;99.90;;;;;;5008121;28;20495;-81
2022/11/26 03:26:51;;;;;;;5.60;2.07;;;6.80;99.90;;;;;;4991616;28;20199;-81
2022/11/26 03:29:17;;;;;;;7.20;1.90;;;6.90;99.90;;;;;;4975595;28;20197;-81
2022/11/26 03:31:42;;;;;;;5.87;2.07;;;6.90;99.90;;;;;;5007946;28;20641;-80
2022/11/26 03:34:08;;;;;;;8.53;2.37;;;7.00;99.90;;;;;;5008403;28;20251;-79
2022/11/26 03:36:33;;;;;;;9.53;2.80;;;6.80;99.90;;;;;;4991676;28;20529;-80
2022/11/26 03:38:59;;;;;;;9.43;2.40;;;6.80;99.90;;;;;;4991694;28;20192;-80
2022/11/26 03:41:24;;;;;;;5.60;2.07;;;6.80;99.90;;;;;;5008047;28;20216;-80
2022/11/26 03:43:50;;;;;;;12.30;5.40;;;6.80;99.90;;;;;;5009452;28;20686;-80
2022/11/26 03:46:16;;;;;;;11.03;3.00;;;6.80;99.90;;;;;;5007731;28;20189;-80
2022/11/26 03:48:41;;;;;;;9.20;2.33;;;6.80;99.90;;;;;;5007309;28;20631;-79
2022/11/26 03:51:07;;;;;;;4.37;2.07;;;6.70;99.90;;;;;;5008023;28;20273;-79
2022/11/26 03:53:32;;;;;;;7.23;2.03;;;6.80;99.90;;;;;;4991726;28;20193;-79
2022/11/26 03:55:58;;;;;;;7.27;2.10;;;6.80;99.90;;;;;;5008225;28;20217;-80
2022/11/26 03:58:24;;;;;;;12.43;2.47;;;6.70;99.90;;;;;;4992003;28;20184;-80
2022/11/26 04:00:49;;;;;;;17.57;2.70;;;6.90;99.90;;;;;;5008241;28;20205;-80
2022/11/26 04:03:15;;;;;;;22.90;16.20;;;6.60;99.90;;;;;;5008239;28;20608;-79
2022/11/26 04:05:40;;;;;;;14.80;8.87;;;6.60;99.90;;;;;;5007905;28;20188;-81
2022/11/26 04:08:06;;;;;;;8.00;4.63;;;6.50;99.90;;;;;;4991746;28;20753;-80
2022/11/26 04:10:32;;;;;;;8.07;2.20;;;6.50;99.90;;;;;;4991535;28;20276;-81
2022/11/26 04:12:57;;;;;;;6.97;3.20;;;6.50;99.90;;;;;;5009358;28;20195;-81
2022/11/26 04:15:23;;;;;;;10.63;2.90;;;6.50;99.90;;;;;;5008109;28;20932;-81
2022/11/26 04:17:49;;;;;;;10.87;3.30;;;6.40;99.90;;;;;;4991910;28;20649;-81
2022/11/26 04:20:14;;;;;;;8.93;2.33;;;6.40;99.90;;;;;;5008380;28;20205;-81
2022/11/26 04:22:40;;;;;;;7.53;2.80;;;6.40;99.90;;;;;;5008540;28;20614;-81
2022/11/26 04:25:06;;;;;;;4.80;2.80;;;6.40;99.90;;;;;;4975650;28;20204;-81
2022/11/26 04:27:32;;;;;;;6.50;2.80;;;6.40;99.90;;;;;;4975672;28;20943;-81
2022/11/26 04:29:58;;;;;;;9.50;2.93;;;6.40;99.90;;;;;;5009660;28;20983;-81
2022/11/26 04:32:24;;;;;;;8.93;2.30;;;6.40;99.90;;;;;;4992111;28;20524;-79
2022/11/26 04:34:49;;;;;;;14.17;3.13;;;6.70;99.90;;;;;;4992071;28;20651;-80
2022/11/26 04:37:15;;;;;;;6.20;2.73;;;6.50;99.90;;;;;;4992065;28;20431;-79
2022/11/26 04:39:41;;;;;;;12.50;4.33;;;6.60;99.90;;;;;;5009667;28;20223;-79
2022/11/26 04:42:07;;;;;;;11.27;2.90;;;6.60;99.90;;;;;;5008354;28;20530;-79
2022/11/26 04:44:32;;;;;;;6.50;2.90;;;6.50;99.90;;;;;;5008252;28;20185;-79
2022/11/26 04:46:58;;;;;;;7.40;3.00;;;6.70;99.90;;;;;;5009749;28;20267;-79
2022/11/26 04:49:23;;;;;;;12.83;2.93;;;6.50;99.90;;;;;;5008137;28;20271;-78
2022/11/26 04:51:49;;;;;;;5.73;2.97;;;6.50;99.90;;;;;;5008052;28;20238;-78
2022/11/26 04:54:15;;;;;;;10.23;4.27;;;6.40;99.90;;;;;;5009453;28;20681;-79
2022/11/26 04:56:40;;;;;;;12.73;4.30;;;6.40;99.90;;;;;;5009201;28;20180;-79
2022/11/26 04:59:06;;;;;;;12.23;4.10;;;6.60;99.90;;;;;;4991164;28;20633;-78
2022/11/26 05:01:32;;;;;;;10.13;4.57;;;6.40;99.90;;;;;;5010039;28;20228;-78
2022/11/26 05:03:57;;;;;;;9.47;4.20;;;6.30;99.90;;;;;;5011138;28;20192;-79
2022/11/26 05:06:23;;;;;;;8.30;4.13;;;6.30;99.90;;;;;;5012624;28;20673;-79
2022/11/26 05:08:48;;;;;;;15.10;4.33;;;6.30;99.90;;;;;;5012664;28;20190;-78
2022/11/26 05:11:14;;;;;;;11.00;3.70;;;6.30;99.90;;;;;;5012229;28;20735;-78
2022/11/26 05:13:39;;;;;;;17.97;3.67;;;6.40;99.90;;;;;;5012395;28;20231;-81
2022/11/26 05:16:05;;;;;;;7.67;3.30;;;6.30;99.90;;;;;;4994989;28;20177;-80
2022/11/26 05:18:31;;;;;;;9.63;3.60;;;6.40;99.90;;;;;;5011935;28;20227;-81
2022/11/26 05:20:56;;;;;;;7.83;3.40;;;6.40;99.90;;;;;;4994063;28;20267;-81
2022/11/26 05:23:22;;;;;;;5.73;3.03;;;6.40;99.90;;;;;;5010512;28;20189;-81
2022/11/26 05:25:49;;;;;;;14.60;4.40;;;6.40;99.90;;;;;;4977958;28;20203;-81
2022/11/26 05:28:15;;;;;;;8.00;3.30;;;6.50;99.90;;;;;;4994066;28;20559;-77
2022/11/26 05:30:41;;;;;;;9.30;3.33;;;6.40;99.90;;;;;;5011768;28;20467;-78
2022/11/26 05:33:06;;;;;;;7.87;3.00;;;6.40;99.90;;;;;;4994106;28;20185;-80
2022/11/26 05:35:32;;;;;;;10.60;2.57;;;6.40;99.90;;;;;;5010509;28;20416;-81
2022/11/26 05:37:58;;;;;;;10.93;3.17;;;6.40;99.90;;;;;;4994023;28;20987;-81
2022/11/26 05:40:23;;;;;;;7.30;2.83;;;6.40;99.90;;;;;;5010177;28;20543;-81
2022/11/26 05:42:49;;;;;;;5.93;2.83;;;6.50;99.90;;;;;;5009982;28;20197;-81
2022/11/26 05:45:15;;;;;;;15.60;2.87;;;6.50;99.90;;;;;;4977932;28;20268;-80
2022/11/26 05:47:41;;;;;;;10.50;3.37;;;6.50;99.90;;;;;;5011354;28;20182;-79
2022/11/26 05:50:07;;;;;;;8.50;3.23;;;6.50;99.90;;;;;;5011106;28;20463;-78
2022/11/26 05:52:33;;;;;;;4.40;2.73;;;6.50;99.90;;;;;;5009596;28;20181;-78
2022/11/26 05:54:58;;;;;;;13.47;3.70;;;6.50;99.90;;;;;;5009555;28;20420;-78
2022/11/26 05:57:24;;;;;;;11.40;3.47;;;6.50;99.90;;;;;;5010889;28;20189;-79
2022/11/26 05:59:50;;;;;;;3.07;2.77;;;6.50;99.90;;;;;;5009616;28;20271;-78
2022/11/26 06:02:15;;;;;;;9.63;3.17;;;6.50;99.90;;;;;;5009522;28;20194;-79
2022/11/26 06:04:42;;;;;;;13.23;3.00;;;6.50;99.90;;;;;;5009649;28;20733;-78
2022/11/26 06:07:08;;;;;;;7.60;2.37;;;6.50;99.90;;;;;;5009674;28;20192;-78
2022/11/26 06:09:34;;;;;;;9.83;3.40;;;6.50;99.90;;;;;;5009600;28;20782;-78
2022/11/26 06:12:00;;;;;;;6.70;3.13;;;6.40;99.90;;;;;;5010197;28;20446;-77
2022/11/26 06:14:26;;;;;;;13.60;3.30;;;6.40;99.90;;;;;;5010836;28;20419;-79
2022/11/26 06:16:51;;;;;;;10.37;4.43;;;6.50;99.90;;;;;;5009128;28;20428;-79
2022/11/26 06:19:17;;;;;;;10.33;2.77;;;6.40;99.90;;;;;;4992831;28;20284;-78
2022/11/26 06:21:43;;;;;;;9.57;2.80;;;6.40;99.90;;;;;;5008925;28;20221;-78
2022/11/26 06:24:09;;;;;;;5.87;2.63;;;6.40;99.90;;;;;;5010488;28;20255;-78
2022/11/26 06:26:34;;;;;;;14.40;2.90;;;6.40;99.90;;;;;;5010701;28;20545;-79
2022/11/26 06:29:00;;;;;;;12.90;2.97;;;6.40;99.90;;;;;;4992820;28;20475;-79
2022/11/26 06:31:25;;;;;;;8.93;3.43;;;6.40;99.90;;;;;;5008859;28;20228;-79
2022/11/26 06:33:55;;;;;;;13.50;3.73;;;6.40;99.90;;;;;;5009166;28;20191;-78
2022/11/26 06:36:21;;;;;;;8.60;3.87;;;6.40;99.90;;;;;;4995132;28;20185;-77
2022/11/26 06:38:46;;;;;;;14.30;4.37;;;6.50;99.90;;;;;;5008975;28;20930;-79
2022/11/26 06:41:12;;;;;;;8.40;5.00;;;6.50;99.90;;;;;;5012476;28;20447;-79
2022/11/26 06:43:38;;;;;;;11.53;3.97;;;6.50;99.90;;;;;;5012348;28;20252;-79
2022/11/26 06:46:07;;;;;;;12.53;3.80;;;6.50;99.90;;;;;;5010393;28;20221;-80
2022/11/26 06:48:34;;;;;;;10.30;4.43;;;6.40;99.90;;;;;;5013537;28;20734;-79
2022/11/26 06:51:08;;;;;;;11.07;4.63;;;6.50;99.90;;;;;;5012349;28;20502;-79
2022/11/26 06:53:34;;;;;;;9.93;4.33;;;6.70;99.90;;;;;;5013201;28;20474;-79
2022/11/26 06:56:02;;;;;;;12.73;4.20;;;6.60;99.90;;;;;;5012087;28;20420;-79
2022/11/26 06:58:27;;;;;;;14.63;5.70;;;6.60;99.90;;;;;;5011448;28;20579;-79
2022/11/26 07:00:53;;;;;;;10.57;5.40;;;6.60;99.90;;;;;;5011720;28;20527;-79
2022/11/26 07:03:19;;;;;;;8.60;6.40;;;6.60;99.90;;;;;;5012071;28;20185;-80
2022/11/26 07:05:45;;;;;;;15.43;6.50;;;6.60;99.90;;;;;;5014079;28;20428;-79
2022/11/26 07:08:10;;;;;;;17.87;7.27;;;6.70;99.90;;;;;;5012588;28;20721;-80
2022/11/26 07:10:37;;;;;;;9.10;5.37;;;6.70;99.90;;;;;;4996311;28;20225;-79
2022/11/26 07:13:02;;;;;;;15.50;6.20;;;6.60;99.90;;;;;;5009949;28;20212;-78
2022/11/26 07:15:28;;;;;;;12.17;7.00;;;6.60;99.90;;;;;;5009218;28;20504;-79
2022/11/26 07:17:53;;;;;;;16.87;7.80;;;6.60;99.90;;;;;;4992914;28;20205;-78
2022/11/26 07:20:19;;;;;;;16.23;7.80;;;6.60;99.90;;;;;;4992849;28;20213;-79
2022/11/26 07:22:45;;;;;;;29.10;17.30;;;6.70;99.90;;;;;;5009662;28;20225;-79
2022/11/26 07:25:11;;;;;;;29.50;12.77;;;6.70;99.90;;;;;;4993017;28;20554;-80
2022/11/26 07:27:36;;;;;;;21.20;12.50;;;6.60;99.90;;;;;;5010090;28;20231;-78
2022/11/26 07:30:03;;;;;;;16.83;10.10;;;6.70;99.90;;;;;;5008753;28;20217;-79
2022/11/26 07:32:29;;;;;;;23.03;9.70;;;6.60;99.90;;;;;;5010256;28;20426;-79
2022/11/26 07:34:55;;;;;;;11.33;7.30;;;6.60;99.90;;;;;;5010115;28;20508;-79
2022/11/26 07:37:20;;;;;;;32.47;12.77;;;6.60;99.90;;;;;;4993678;28;20446;-79
2022/11/26 07:39:46;;;;;;;52.97;26.17;;;6.50;99.90;;;;;;5012006;28;20181;-79
2022/11/26 07:42:12;;;;;;;13.97;6.80;;;6.60;99.90;;;;;;5012077;28;20201;-79
2022/11/26 07:44:38;;;;;;;17.53;6.80;;;6.70;99.90;;;;;;5010623;28;20774;-80
2022/11/26 07:47:04;;;;;;;4.67;1.73;;;6.70;99.90;;;;;;5011303;28;20428;-80
2022/11/26 07:49:30;;;;;;;5.40;2.07;;;6.80;99.90;;;;;;4995531;28;20186;-79
2022/11/26 07:51:55;;;;;;;5.10;2.30;;;6.80;99.90;;;;;;5013804;28;20905;-79
2022/11/26 07:54:21;;;;;;;9.93;2.30;;;6.90;99.90;;;;;;5012993;28;20250;-80
2022/11/26 07:56:47;;;;;;;10.40;3.00;;;6.90;99.90;;;;;;5013025;28;20341;-79
2022/11/26 07:59:12;;;;;;;7.90;1.90;;;6.80;99.90;;;;;;5011202;28;20611;-80
2022/11/26 08:01:38;;;;;;;10.73;2.10;;;6.90;99.90;;;;;;5012957;28;20205;-79
2022/11/26 08:04:05;;;;;;;9.03;2.10;;;6.90;99.90;;;;;;5010536;28;20189;-80
2022/11/26 08:06:31;;;;;;;4.63;1.47;;;6.90;99.90;;;;;;5012238;28;20180;-79
2022/11/26 08:09:01;;;;;;;10.60;1.87;;;6.90;99.90;;;;;;5011873;28;20424;-79
2022/11/26 08:11:29;;;;;;;5.13;2.00;;;6.90;99.90;;;;;;5009989;28;20471;-80
2022/11/26 08:14:00;;;;;;;4.23;1.33;;;7.10;99.90;;;;;;5010302;28;20789;-79
2022/11/26 08:16:26;;;;;;;12.57;2.17;;;7.00;99.90;;;;;;4995056;28;20891;-79
2022/11/26 08:18:56;;;;;;;2.00;1.23;;;7.10;99.90;;;;;;4993288;28;20538;-79
2022/11/26 08:21:22;;;;;;;5.73;1.70;;;7.20;99.90;;;;;;5010402;28;20587;-79
2022/11/26 08:23:47;;;;;;;6.50;3.20;;;7.30;99.90;;;;;;5010256;28;20515;-79
2022/11/26 08:26:14;;;;;;;3.90;1.80;;;7.30;99.90;;;;;;5011327;28;20519;-79
2022/11/26 08:28:44;;;;;;;8.23;1.97;;;7.40;99.90;;;;;;4992913;28;20199;-81
2022/11/26 08:31:11;;;;;;;6.67;1.83;;;7.40;99.90;;;;;;5009402;28;20464;-80
2022/11/26 08:33:37;;;;;;;2.93;1.77;;;7.50;99.90;;;;;;5007865;28;20511;-81
2022/11/26 08:36:04;;;;;;;5.40;1.50;;;7.60;99.90;;;;;;4995357;28;20826;-79
2022/11/26 08:38:30;;;;;;;2.87;1.60;;;7.60;99.90;;;;;;5011480;28;20481;-82
2022/11/26 08:41:00;;;;;;;5.57;1.40;;;7.80;99.90;;;;;;4995397;28;20538;-82
2022/11/26 08:43:25;;;;;;;10.40;4.53;;;7.80;99.90;;;;;;5012932;28;20895;-80
2022/11/26 08:45:53;;;;;;;4.57;1.47;;;7.80;99.90;;;;;;4995055;28;20424;-83
2022/11/26 08:48:18;;;;;;;9.80;3.57;;;7.90;99.90;;;;;;5011452;28;20224;-80
2022/11/26 08:50:44;;;;;;;6.90;2.53;;;7.90;99.90;;;;;;5011216;28;20471;-80
2022/11/26 08:53:10;;;;;;;6.30;1.53;;;7.90;99.90;;;;;;4995052;28;20185;-81
2022/11/26 08:55:36;;;;;;;3.03;1.20;;;7.80;99.90;;;;;;5011193;28;20189;-82
2022/11/26 08:58:01;;;;;;;2.30;1.87;;;7.90;99.90;;;;;;4995240;28;20759;-80
2022/11/26 09:00:27;;;;;;;6.70;5.00;;;7.90;99.90;;;;;;5011161;28;20268;-81
2022/11/26 09:02:53;;;;;;;4.10;2.63;;;7.90;99.90;;;;;;5011373;28;20933;-80
2022/11/26 09:05:18;;;;;;;7.57;2.77;;;7.90;99.90;;;;;;5011427;28;20647;-80
2022/11/26 09:07:44;;;;;;;10.07;1.90;;;7.90;99.90;;;;;;4994986;28;20195;-82
2022/11/26 09:10:10;;;;;;;12.00;7.87;;;7.90;99.90;;;;;;4994551;28;20217;-80
2022/11/26 09:12:37;;;;;;;12.20;5.67;;;7.90;99.90;;;;;;4994990;28;20188;-81
2022/11/26 09:15:03;;;;;;;6.20;1.87;;;7.90;99.90;;;;;;5010807;28;20431;-81
2022/11/26 09:17:28;;;;;;;64.07;32.53;;;7.90;99.90;;;;;;5010976;28;20461;-81
2022/11/26 09:19:55;;;;;;;17.53;9.87;;;7.90;99.90;;;;;;5010746;28;20430;-80
2022/11/26 09:22:21;;;;;;;14.70;7.30;;;7.80;99.90;;;;;;4994775;28;20754;-80
2022/11/26 09:24:47;;;;;;;8.67;5.17;;;7.80;99.90;;;;;;5010741;28;20566;-80
2022/11/26 09:27:13;;;;;;;7.43;5.10;;;8.00;99.90;;;;;;4994582;28;20515;-80
2022/11/26 09:29:38;;;;;;;6.73;3.63;;;9.90;99.90;;;;;;5010851;28;20208;-83
2022/11/26 09:32:04;;;;;;;11.33;6.07;;;11.00;99.90;;;;;;5010538;28;20214;-81
2022/11/26 09:34:30;;;;;;;12.23;4.80;;;11.30;99.90;;;;;;5010802;28;20247;-82
2022/11/26 09:36:55;;;;;;;293.90;116.40;;;10.70;99.90;;;;;;5010889;28;20805;-82
2022/11/26 09:39:21;;;;;;;16.47;8.33;;;10.30;99.90;;;;;;5010417;28;20192;-81
2022/11/26 09:42:04;;;;;;;9.77;5.00;;;9.80;99.90;;;;;;4997379;28;20222;-80
2022/11/26 09:45:03;;;;;;;16.90;7.83;;;10.00;99.90;;;;;;4998628;28;20218;-81
2022/11/26 09:47:41;;;;;;;6.27;4.67;;;10.20;99.90;;;;;;5006415;28;20459;-81
2022/11/26 09:50:10;;;;;;;5.13;3.50;;;10.20;99.90;;;;;;5014621;28;21063;-80
2022/11/26 09:52:39;;;;;;;18.77;10.63;;;10.80;99.90;;;;;;5016440;28;20409;-80
2022/11/26 09:55:21;;;;;;;13.93;8.20;;;12.80;99.90;;;;;;5015706;28;20495;-81
2022/11/26 09:58:12;;;;;;;12.73;6.57;;;15.20;99.90;;;;;;5016076;28;20416;-80
2022/11/26 10:00:46;;;;;;;35.27;16.13;;;16.70;99.90;;;;;;5015480;28;21198;-81
2022/11/26 10:03:19;;;;;;;43.40;29.10;;;18.10;95.90;;;;;;5012385;28;20507;-82
2022/11/26 10:06:09;;;;;;;8.00;4.10;;;19.10;92.30;;;;;;5012881;28;20493;-80
2022/11/26 10:08:56;;;;;;;6.70;3.53;;;19.20;90.10;;;;;;5012632;28;20903;-80
2022/11/26 10:11:43;;;;;;;7.80;3.77;;;19.90;89.10;;;;;;5012038;28;20467;-80
2022/11/26 10:14:27;;;;;;;45.90;19.67;;;20.00;83.70;;;;;;5012352;28;20439;-80
2022/11/26 10:16:59;;;;;;;40.10;17.70;;;20.40;83.50;;;;;;5012214;28;20431;-80
2022/11/26 10:19:45;;;;;;;104.67;43.80;;;20.60;79.40;;;;;;5015310;28;20451;-81
2022/11/26 10:22:32;;;;;;;10.80;6.60;;;18.80;81.80;;;;;;5012358;28;20471;-80
2022/11/26 10:24:58;;;;;;;6.30;4.97;;;17.60;87.80;;;;;;4995313;28;20433;-81
2022/11/26 10:27:29;;;;;;;9.83;3.90;;;16.30;91.90;;;;;;5012907;28;20458;-81
2022/11/26 10:30:02;;;;;;;6.90;4.27;;;16.40;92.00;;;;;;5011933;28;20454;-80
2022/11/26 10:32:42;;;;;;;10.60;4.13;;;16.20;91.90;;;;;;5012582;28;20930;-82
2022/11/26 10:35:20;;;;;;;24.60;11.43;;;16.40;91.60;;;;;;4995710;28;20439;-82
2022/11/26 10:37:47;;;;;;;26.03;12.00;;;15.70;93.00;;;;;;5013328;28;20417;-81
2022/11/26 10:40:24;;;;;;;11.53;5.83;;;15.10;94.20;;;;;;4995665;28;20452;-82
2022/11/26 10:43:11;;;;;;;10.40;6.07;;;14.90;94.70;;;;;;5011668;28;20433;-82
2022/11/26 10:45:45;;;;;;;11.80;5.27;;;15.60;98.00;;;;;;5012772;28;20434;-82
2022/11/26 10:48:26;;;;;;;78.57;34.43;;;16.40;95.40;;;;;;5012934;28;20417;-81
2022/11/26 10:51:27;;;;;;;53.77;23.93;;;17.50;93.20;;;;;;5011073;28;20866;-81
2022/11/26 10:54:01;;;;;;;58.40;24.07;;;18.00;91.30;;;;;;5011203;28;20872;-82
2022/11/26 10:56:43;;;;;;;39.47;16.90;;;19.10;90.60;;;;;;5010340;28;20461;-81
2022/11/26 10:59:30;;;;;;;29.03;13.27;;;19.30;85.00;;;;;;5011173;28;20522;-81
2022/11/26 11:02:02;;;;;;;21.50;15.83;;;19.90;85.50;;;;;;4994385;28;20445;-81
2022/11/26 11:04:36;;;;;;;17.87;11.00;;;20.20;83.50;;;;;;5010691;28;20464;-82
2022/11/26 11:07:02;;;;;;;67.93;38.60;;;19.60;82.10;;;;;;5011375;28;20413;-82
2022/11/26 11:09:36;;;;;;;39.53;18.90;;;19.10;82.90;;;;;;4994208;28;20435;-81
2022/11/26 11:12:20;;;;;;;18.43;9.93;;;18.50;85.00;;;;;;4994462;28;20511;-81
2022/11/26 11:14:47;;;;;;;50.50;25.80;;;17.40;85.50;;;;;;5012215;28;20775;-82
2022/11/26 11:17:25;;;;;;;29.90;18.67;;;16.50;90.20;;;;;;5012594;28;20451;-82
2022/11/26 11:19:50;;;;;;;35.43;22.97;;;16.30;91.20;;;;;;5010943;28;20411;-81
2022/11/26 11:22:19;;;;;;;15.00;10.80;;;16.50;91.00;;;;;;4995520;28;20522;-82
2022/11/26 11:24:45;;;;;;;16.97;9.77;;;15.70;91.30;;;;;;4995245;28;20188;-83
2022/11/26 11:27:24;;;;;;;65.87;40.57;;;15.70;91.50;;;;;;4995486;28;20441;-82
2022/11/26 11:29:50;;;;;;;42.73;19.63;;;15.60;92.20;;;;;;5012731;28;20410;-81
2022/11/26 11:32:38;;;;;;;156.80;70.33;;;15.50;91.10;;;;;;4979302;28;20433;-82
2022/11/26 11:35:19;;;;;;;17.97;6.07;;;14.90;92.10;;;;;;5011673;28;20426;-81
2022/11/26 11:37:51;;;;;;;60.47;32.37;;;15.00;92.30;;;;;;5011316;28;20949;-81
2022/11/26 11:40:23;;;;;;;18.20;8.27;;;14.80;92.70;;;;;;5011480;28;20456;-82
2022/11/26 11:42:54;;;;;;;35.90;20.37;;;14.80;91.40;;;;;;5011353;28;20432;-82
2022/11/26 11:46:07;;;;;;;9.60;2.73;;;15.10;91.90;;;;;;5011555;28;20413;-81
2022/11/26 11:48:49;;;;;;;8.17;2.17;;;14.90;90.30;;;;;;4985773;28;20482;-81
2022/11/26 11:51:30;;;;;;;4.47;1.60;;;14.80;91.00;;;;;;5010974;28;20472;-81
2022/11/26 11:54:19;;;;;;;9.57;1.80;;;14.50;90.50;;;;;;5011106;28;20519;-82
2022/11/26 11:57:27;;;;;;;22.50;9.73;;;14.60;91.20;;;;;;5012330;28;20435;-82
2022/11/26 12:00:11;;;;;;;8.93;3.50;;;14.40;92.30;;;;;;5012765;28;20427;-82
2022/11/26 12:02:55;;;;;;;18.00;3.23;;;13.80;91.40;;;;;;5011556;28;20427;-81
2022/11/26 12:05:58;;;;;;;11.47;2.33;;;13.60;93.10;;;;;;5012889;28;20408;-82
2022/11/26 12:08:43;;;;;;;7.67;2.20;;;13.10;95.00;;;;;;5011151;28;20912;-81
2022/11/26 12:11:40;;;;;;;12.03;2.37;;;12.90;94.70;;;;;;5011027;28;20828;-82
2022/11/26 12:14:18;;;;;;;6.70;2.30;;;12.70;95.30;;;;;;5010159;28;20460;-82
2022/11/26 12:16:48;;;;;;;7.47;2.20;;;12.50;95.10;;;;;;5010756;28;20554;-81
2022/11/26 12:19:39;;;;;;;6.70;2.23;;;12.20;93.60;;;;;;5011710;28;20491;-82
2022/11/26 12:22:25;;;;;;;7.53;1.90;;;12.20;95.50;;;;;;5011614;28;21011;-81
2022/11/26 12:25:17;;;;;;;5.80;1.90;;;12.10;95.80;;;;;;5011422;28;20431;-81
2022/11/26 12:27:56;;;;;;;8.53;2.57;;;12.20;96.20;;;;;;5011581;28;20431;-81
2022/11/26 12:30:28;;;;;;;9.60;1.80;;;12.20;95.70;;;;;;5011302;28;20478;-82
2022/11/26 12:33:02;;;;;;;7.90;2.40;;;12.20;97.50;;;;;;5010628;28;20428;-83
2022/11/26 12:35:51;;;;;;;9.37;2.23;;;12.10;98.00;;;;;;5010139;28;21142;-82
2022/11/26 12:38:24;;;;;;;6.10;2.40;;;12.00;96.60;;;;;;5010345;28;20427;-81
2022/11/26 12:41:01;;;;;;;4.80;2.20;;;11.90;96.20;;;;;;5008039;28;20886;-84
2022/11/26 12:43:43;;;;;;;8.53;2.50;;;11.90;96.50;;;;;;5007806;28;20925;-84
2022/11/26 12:46:22;;;;;;;7.30;2.13;;;11.70;97.00;;;;;;5007590;28;20484;-83
2022/11/26 12:48:47;;;;;;;9.70;2.80;;;11.60;97.20;;;;;;5008000;28;21015;-84
2022/11/26 12:51:25;;;;;;;7.60;2.70;;;11.60;97.50;;;;;;5007608;28;20482;-84
2022/11/26 12:54:17;;;;;;;10.83;2.90;;;11.80;97.50;;;;;;5010987;28;20184;-83
2022/11/26 12:57:03;;;;;;;25.30;16.30;;;11.70;98.50;;;;;;5013118;28;20435;-84
2022/11/26 12:59:43;;;;;;;61.93;29.27;;;11.70;98.60;;;;;;5011979;28;20427;-83
2022/11/26 13:02:23;;;;;;;54.20;29.53;;;11.90;97.70;;;;;;5011169;28;20524;-83
2022/11/26 13:04:51;;;;;;;16.30;6.17;;;11.90;99.00;;;;;;4994173;28;20980;-84
2022/11/26 13:07:25;;;;;;;25.33;10.17;;;11.80;99.70;;;;;;4994367;28;20427;-83